Time,TemperatureF,DewpointF,PressureIn,WindDirection,WindDirectionDegrees,WindSpeedMPH,WindSpeedGustMPH,Humidity,HourlyPrecipIn,Conditions,Clouds,dailyrainin,SoftwareType,DateUTC
2013-06-26 00:06:00,76.3,67.8,29.84,WSW,247,0.0,-999.0,75,-99.99,,,0.00,Acu-Link.com,2013-06-26 04:06:00,
2013-06-26 00:22:00,76.1,68.4,29.85,SW,225,1.1,-999.0,77,-99.99,,,0.00,Acu-Link.com,2013-06-26 04:22:00,
2013-06-26 00:37:00,77.7,69.5,29.86,NNW,337,3.2,-999.0,76,-99.99,,,0.00,Acu-Link.com,2013-06-26 04:37:00,
2013-06-26 00:52:00,78.3,68.1,29.85,NW,315,2.2,-999.0,71,-99.99,,,0.00,Acu-Link.com,2013-06-26 04:52:00,
2013-06-26 01:07:00,77.4,66.4,29.84,NW,315,3.2,-999.0,69,-99.99,,,0.00,Acu-Link.com,2013-06-26 05:07:00,
2013-06-26 01:22:00,76.3,65.4,29.82,West,270,1.7,-999.0,69,-99.99,,,0.00,Acu-Link.com,2013-06-26 05:22:00,
2013-06-26 01:38:00,75.6,65.5,29.82,West,270,0.0,-999.0,71,-99.99,,,0.00,Acu-Link.com,2013-06-26 05:38:00,
2013-06-26 01:53:00,74.7,65.5,29.80,WNW,292,2.2,-999.0,73,-99.99,,,0.00,Acu-Link.com,2013-06-26 05:53:00,
2013-06-26 02:08:00,74.3,64.7,29.81,NW,315,0.0,-999.0,72,-99.99,,,0.00,Acu-Link.com,2013-06-26 06:08:00,
2013-06-26 02:23:00,73.9,63.5,29.81,SSW,202,3.2,-999.0,70,-99.99,,,0.00,Acu-Link.com,2013-06-26 06:23:00,
2013-06-26 02:38:00,73.6,62.8,29.81,ENE,67,0.0,-999.0,69,-99.99,,,0.00,Acu-Link.com,2013-06-26 06:38:00,
2013-06-26 02:54:00,73.2,62.4,29.81,WNW,292,0.0,-999.0,69,-99.99,,,0.00,Acu-Link.com,2013-06-26 06:54:00,
2013-06-26 03:09:00,72.7,61.9,29.81,WSW,247,0.0,-999.0,69,-99.99,,,0.00,Acu-Link.com,2013-06-26 07:09:00,
2013-06-26 03:24:00,72.1,61.8,29.82,ESE,112,0.0,-999.0,70,-99.99,,,0.00,Acu-Link.com,2013-06-26 07:24:00,
2013-06-26 03:39:00,71.4,61.9,29.81,West,270,0.0,-999.0,72,-99.99,,,0.00,Acu-Link.com,2013-06-26 07:39:00,
2013-06-26 03:54:00,70.9,61.4,29.81,SE,135,0.0,-999.0,72,-99.99,,,0.00,Acu-Link.com,2013-06-26 07:54:00,
2013-06-26 04:10:00,70.5,61.8,29.81,SSW,202,0.0,-999.0,74,-99.99,,,0.00,Acu-Link.com,2013-06-26 08:10:00,
2013-06-26 04:25:00,70.2,61.5,29.81,West,270,0.0,-999.0,74,-99.99,,,0.00,Acu-Link.com,2013-06-26 08:25:00,
2013-06-26 04:40:00,69.4,61.1,29.81,ESE,112,0.0,-999.0,75,-99.99,,,0.00,Acu-Link.com,2013-06-26 08:40:00,
2013-06-26 04:55:00,68.9,61.4,29.81,ESE,112,0.0,-999.0,77,-99.99,,,0.00,Acu-Link.com,2013-06-26 08:55:00,
2013-06-26 05:10:00,69.3,61.8,29.81,SSE,157,1.1,-999.0,77,-99.99,,,0.00,Acu-Link.com,2013-06-26 09:10:00,
2013-06-26 05:25:00,69.4,61.1,29.81,ESE,112,0.0,-999.0,75,-99.99,,,0.00,Acu-Link.com,2013-06-26 09:25:00,
2013-06-26 05:40:00,68.7,60.8,29.81,SSE,157,0.0,-999.0,76,-99.99,,,0.00,Acu-Link.com,2013-06-26 09:40:00,
2013-06-26 05:55:00,68.4,61.3,29.82,NNW,337,0.0,-999.0,78,-99.99,,,0.00,Acu-Link.com,2013-06-26 09:55:00,
2013-06-26 06:11:00,68.9,62.5,29.83,NNW,337,0.0,-999.0,80,-99.99,,,0.00,Acu-Link.com,2013-06-26 10:11:00,
2013-06-26 06:26:00,70.3,62.7,29.83,NNE,22,0.0,-999.0,77,-99.99,,,0.00,Acu-Link.com,2013-06-26 10:26:00,
2013-06-26 06:41:00,72.1,63.3,29.85,SE,135,0.0,-999.0,74,-99.99,,,0.00,Acu-Link.com,2013-06-26 10:41:00,
2013-06-26 06:56:00,74.7,64.2,29.85,WNW,292,0.0,-999.0,70,-99.99,,,0.00,Acu-Link.com,2013-06-26 10:56:00,
2013-06-26 07:12:00,76.5,63.8,29.85,WNW,292,0.0,-999.0,65,-99.99,,,0.00,Acu-Link.com,2013-06-26 11:12:00,
2013-06-26 07:27:00,78.1,64.0,29.85,ESE,112,0.0,-999.0,62,-99.99,,,0.00,Acu-Link.com,2013-06-26 11:27:00,
2013-06-26 07:42:00,79.5,63.9,29.85,NW,315,2.7,-999.0,59,-99.99,,,0.00,Acu-Link.com,2013-06-26 11:42:00,
2013-06-26 07:57:00,81.3,64.6,29.85,West,270,0.0,-999.0,57,-99.99,,,0.00,Acu-Link.com,2013-06-26 11:57:00,
2013-06-26 08:12:00,82.4,65.6,29.84,ESE,112,1.1,-999.0,57,-99.99,,,0.00,Acu-Link.com,2013-06-26 12:12:00,
2013-06-26 08:28:00,84.7,66.7,29.85,SSE,157,1.7,-999.0,55,-99.99,,,0.00,Acu-Link.com,2013-06-26 12:28:00,
2013-06-26 08:43:00,86.4,67.8,29.85,West,270,1.1,-999.0,54,-99.99,,,0.00,Acu-Link.com,2013-06-26 12:43:00,
2013-06-26 08:58:00,89.2,68.7,29.85,South,180,2.7,-999.0,51,-99.99,,,0.00,Acu-Link.com,2013-06-26 12:58:00,
2013-06-26 09:13:00,89.6,69.0,29.85,SSW,202,2.2,-999.0,51,-99.99,,,0.00,Acu-Link.com,2013-06-26 13:13:00,
2013-06-26 09:28:00,91.4,70.1,29.84,ESE,112,3.2,-999.0,50,-99.99,,,0.00,Acu-Link.com,2013-06-26 13:28:00,
2013-06-26 09:44:00,85.1,69.6,29.84,SSW,202,2.7,-999.0,60,-99.99,,,0.00,Acu-Link.com,2013-06-26 13:44:00,
2013-06-26 09:59:00,84.9,69.4,29.84,East,90,3.2,-999.0,60,-99.99,,,0.00,Acu-Link.com,2013-06-26 13:59:00,
2013-06-26 10:14:00,85.8,69.8,29.83,South,180,2.2,-999.0,59,-99.99,,,0.00,Acu-Link.com,2013-06-26 14:14:00,
2013-06-26 10:29:00,86.5,70.9,29.83,WSW,247,4.2,-999.0,60,-99.99,,,0.00,Acu-Link.com,2013-06-26 14:29:00,
2013-06-26 10:44:00,87.1,71.0,29.82,SSE,157,3.7,-999.0,59,-99.99,,,0.00,Acu-Link.com,2013-06-26 14:44:00,
2013-06-26 11:00:00,87.4,71.3,29.81,SE,135,4.7,-999.0,59,-99.99,,,0.00,Acu-Link.com,2013-06-26 15:00:00,
2013-06-26 11:15:00,87.3,71.2,29.82,SSE,157,1.7,-999.0,59,-99.99,,,0.00,Acu-Link.com,2013-06-26 15:15:00,
2013-06-26 11:30:00,88.0,71.3,29.82,SSW,202,3.2,-999.0,58,-99.99,,,0.00,Acu-Link.com,2013-06-26 15:30:00,
2013-06-26 11:45:00,90.0,72.2,29.81,SSW,202,3.7,-999.0,56,-99.99,,,0.00,Acu-Link.com,2013-06-26 15:45:00,
2013-06-26 12:01:00,88.9,72.2,29.82,WSW,247,4.7,-999.0,58,-99.99,,,0.00,Acu-Link.com,2013-06-26 16:01:00,
2013-06-26 12:16:00,88.5,72.3,29.82,SSE,157,1.7,-999.0,59,-99.99,,,0.00,Acu-Link.com,2013-06-26 16:16:00,
2013-06-26 12:31:00,87.8,71.1,29.82,North,0,3.7,-999.0,58,-99.99,,,0.00,Acu-Link.com,2013-06-26 16:31:00,
2013-06-26 12:46:00,89.8,72.5,29.81,ESE,112,4.2,-999.0,57,-99.99,,,0.00,Acu-Link.com,2013-06-26 16:46:00,
2013-06-26 13:01:00,90.5,72.1,29.81,South,180,4.7,-999.0,55,-99.99,,,0.00,Acu-Link.com,2013-06-26 17:01:00,
2013-06-26 13:17:00,91.2,72.7,29.81,SSW,202,2.7,-999.0,55,-99.99,,,0.00,Acu-Link.com,2013-06-26 17:17:00,
2013-06-26 13:32:00,92.8,73.1,29.80,SE,135,5.3,-999.0,53,-99.99,,,0.00,Acu-Link.com,2013-06-26 17:32:00,
2013-06-26 13:47:00,91.0,72.0,29.80,West,270,5.3,-999.0,54,-99.99,,,0.00,Acu-Link.com,2013-06-26 17:47:00,
2013-06-26 14:02:00,90.5,71.5,29.80,WNW,292,3.7,-999.0,54,-99.99,,,0.00,Acu-Link.com,2013-06-26 18:02:00,
2013-06-26 14:17:00,92.5,72.3,29.79,South,180,3.2,-999.0,52,-99.99,,,0.00,Acu-Link.com,2013-06-26 18:17:00,
2013-06-26 14:36:00,92.8,72.5,29.78,SW,225,1.1,-999.0,52,-99.99,,,0.00,Acu-Link.com,2013-06-26 18:36:00,
2013-06-26 14:51:00,93.4,71.9,29.78,SE,135,2.7,-999.0,50,-99.99,,,0.00,Acu-Link.com,2013-06-26 18:51:00,
2013-06-26 15:06:00,91.8,71.6,29.78,SSE,157,2.7,-999.0,52,-99.99,,,0.00,Acu-Link.com,2013-06-26 19:06:00,
2013-06-26 15:22:00,93.9,72.4,29.78,SSE,157,6.3,-999.0,50,-99.99,,,0.00,Acu-Link.com,2013-06-26 19:22:00,
2013-06-26 15:37:00,90.9,71.4,29.77,ESE,112,2.7,-999.0,53,-99.99,,,0.00,Acu-Link.com,2013-06-26 19:37:00,
2013-06-26 15:52:00,93.2,71.2,29.76,SSW,202,4.7,-999.0,49,-99.99,,,0.00,Acu-Link.com,2013-06-26 19:52:00,
2013-06-26 16:07:00,92.8,71.4,29.76,SE,135,0.0,-999.0,50,-99.99,,,0.00,Acu-Link.com,2013-06-26 20:07:00,
2013-06-26 16:22:00,91.8,71.1,29.75,South,180,1.7,-999.0,51,-99.99,,,0.00,Acu-Link.com,2013-06-26 20:22:00,
2013-06-26 16:38:00,92.1,71.3,29.75,SSE,157,2.7,-999.0,51,-99.99,,,0.00,Acu-Link.com,2013-06-26 20:38:00,
2013-06-26 16:53:00,92.3,70.3,29.74,WSW,247,5.3,-999.0,49,-99.99,,,0.00,Acu-Link.com,2013-06-26 20:53:00,
2013-06-26 17:08:00,91.9,70.6,29.74,South,180,2.7,-999.0,50,-99.99,,,0.00,Acu-Link.com,2013-06-26 21:08:00,
2013-06-26 17:23:00,91.4,70.7,29.73,NNW,337,3.7,-999.0,51,-99.99,,,0.00,Acu-Link.com,2013-06-26 21:23:00,
2013-06-26 17:39:00,92.8,70.8,29.73,SSW,202,3.2,-999.0,49,-99.99,,,0.00,Acu-Link.com,2013-06-26 21:39:00,
2013-06-26 17:54:00,92.8,71.4,29.74,SW,225,5.3,-999.0,50,-99.99,,,0.00,Acu-Link.com,2013-06-26 21:54:00,
2013-06-26 18:09:00,92.1,71.3,29.73,SSW,202,2.2,-999.0,51,-99.99,,,0.00,Acu-Link.com,2013-06-26 22:09:00,
2013-06-26 18:24:00,90.7,70.6,29.73,SW,225,5.3,-999.0,52,-99.99,,,0.00,Acu-Link.com,2013-06-26 22:24:00,
2013-06-26 18:39:00,89.4,70.5,29.73,SE,135,0.0,-999.0,54,-99.99,,,0.00,Acu-Link.com,2013-06-26 22:39:00,
2013-06-26 18:55:00,88.2,71.0,29.74,South,180,2.2,-999.0,57,-99.99,,,0.00,Acu-Link.com,2013-06-26 22:55:00,
2013-06-26 19:10:00,87.4,70.3,29.74,SSW,202,5.8,-999.0,57,-99.99,,,0.00,Acu-Link.com,2013-06-26 23:10:00,
2013-06-26 19:25:00,86.5,69.9,29.75,WSW,247,1.1,-999.0,58,-99.99,,,0.00,Acu-Link.com,2013-06-26 23:25:00,
2013-06-26 19:40:00,85.5,70.0,29.75,South,180,3.7,-999.0,60,-99.99,,,0.00,Acu-Link.com,2013-06-26 23:40:00,
2013-06-26 19:56:00,84.7,69.7,29.75,WSW,247,1.7,-999.0,61,-99.99,,,0.00,Acu-Link.com,2013-06-26 23:56:00,
2013-06-26 20:11:00,83.8,69.8,29.76,SW,225,6.8,-999.0,63,-99.99,,,0.00,Acu-Link.com,2013-06-27 00:11:00,
2013-06-26 20:26:00,83.3,69.8,29.75,SSE,157,1.1,-999.0,64,-99.99,,,0.00,Acu-Link.com,2013-06-27 00:26:00,
2013-06-26 20:41:00,82.8,69.8,29.75,SSE,157,0.0,-999.0,65,-99.99,,,0.00,Acu-Link.com,2013-06-27 00:41:00,
2013-06-26 20:57:00,82.2,69.7,29.75,SW,225,1.7,-999.0,66,-99.99,,,0.00,Acu-Link.com,2013-06-27 00:57:00,
2013-06-26 21:12:00,81.9,69.8,29.76,ESE,112,0.0,-999.0,67,-99.99,,,0.00,Acu-Link.com,2013-06-27 01:12:00,
2013-06-26 21:27:00,81.5,69.9,29.76,ESE,112,0.0,-999.0,68,-99.99,,,0.00,Acu-Link.com,2013-06-27 01:27:00,
2013-06-26 21:42:00,81.0,70.3,29.75,SE,135,1.7,-999.0,70,-99.99,,,0.00,Acu-Link.com,2013-06-27 01:42:00,
2013-06-26 21:57:00,80.4,70.5,29.75,NNE,22,0.0,-999.0,72,-99.99,,,0.00,Acu-Link.com,2013-06-27 01:57:00,
2013-06-26 22:13:00,80.2,70.3,29.74,NNE,22,0.0,-999.0,72,-99.99,,,0.00,Acu-Link.com,2013-06-27 02:13:00,
2013-06-26 22:28:00,80.1,70.6,29.74,WSW,247,1.7,-999.0,73,-99.99,,,0.00,Acu-Link.com,2013-06-27 02:28:00,
2013-06-26 22:43:00,79.7,70.3,29.74,NW,315,1.7,-999.0,73,-99.99,,,0.00,Acu-Link.com,2013-06-27 02:43:00,
2013-06-26 22:58:00,79.2,70.6,29.75,SW,225,0.0,-999.0,75,-99.99,,,0.00,Acu-Link.com,2013-06-27 02:58:00,
2013-06-26 23:13:00,78.6,70.0,29.75,SE,135,0.0,-999.0,75,-99.99,,,0.00,Acu-Link.com,2013-06-27 03:13:00,
2013-06-26 23:29:00,78.1,69.9,29.74,SSW,202,0.0,-999.0,76,-99.99,,,0.00,Acu-Link.com,2013-06-27 03:29:00,
2013-06-26 23:44:00,77.4,69.6,29.75,WNW,292,0.0,-999.0,77,-99.99,,,0.00,Acu-Link.com,2013-06-27 03:44:00,
2013-06-26 23:59:00,77.0,70.0,29.75,West,270,0.0,-999.0,79,-99.99,,,0.00,Acu-Link.com,2013-06-27 03:59:00,